createdAt,value
2023-06-11T00:00:43.078Z,21.10
2023-06-11T00:03:09.930Z,21.00
2023-06-11T00:05:36.674Z,21.00
2023-06-11T00:08:03.882Z,20.90
2023-06-11T00:10:30.565Z,20.90
2023-06-11T00:12:57.374Z,20.80
2023-06-11T00:15:25.351Z,20.80
2023-06-11T00:17:52.175Z,20.70
2023-06-11T00:20:18.930Z,20.60
2023-06-11T00:22:45.628Z,20.50
2023-06-11T00:25:13.030Z,20.50
2023-06-11T00:27:40.145Z,20.50
2023-06-11T00:30:08.034Z,20.50
2023-06-11T00:32:36.928Z,20.40
2023-06-11T00:35:09.111Z,20.30
2023-06-11T00:37:36.852Z,20.30
2023-06-11T00:40:05.438Z,20.20
2023-06-11T00:42:34.621Z,20.20
2023-06-11T00:45:04.889Z,20.10
2023-06-11T00:47:32.691Z,20.00
2023-06-11T00:50:01.187Z,19.90
2023-06-11T00:52:28.000Z,19.90
2023-06-11T00:54:57.169Z,19.80
2023-06-11T00:57:27.075Z,19.80
2023-06-11T00:59:55.241Z,19.70
2023-06-11T01:02:34.416Z,19.70
2023-06-11T01:05:04.733Z,19.60
2023-06-11T01:07:42.381Z,19.60
2023-06-11T01:10:09.818Z,19.50
2023-06-11T01:12:36.804Z,19.50
2023-06-11T01:15:03.816Z,19.40
2023-06-11T01:18:13.151Z,19.40
2023-06-11T01:20:56.252Z,19.30
2023-06-11T01:23:47.696Z,19.30
2023-06-11T01:26:31.376Z,19.20
2023-06-11T01:29:01.130Z,19.20
2023-06-11T01:31:32.502Z,19.10
2023-06-11T01:33:59.437Z,19.10
2023-06-11T01:36:30.106Z,19.10
2023-06-11T01:39:00.247Z,19.00
2023-06-11T01:41:28.371Z,18.90
2023-06-11T01:43:55.596Z,18.90
2023-06-11T01:46:22.615Z,19.10
2023-06-11T01:48:50.074Z,18.80
2023-06-11T01:51:16.875Z,18.80
2023-06-11T01:53:44.074Z,19.50
2023-06-11T01:56:11.309Z,19.00
2023-06-11T01:58:38.477Z,19.10
2023-06-11T02:01:05.743Z,18.70
2023-06-11T02:03:32.706Z,18.80
2023-06-11T02:05:59.566Z,18.70
2023-06-11T02:08:27.613Z,18.60
2023-06-11T02:10:54.987Z,18.60
2023-06-11T02:13:21.754Z,18.50
2023-06-11T02:15:48.578Z,18.50
2023-06-11T02:18:15.364Z,18.40
2023-06-11T02:20:42.107Z,18.40
2023-06-11T02:23:08.974Z,18.30
2023-06-11T02:25:35.721Z,18.30
2023-06-11T02:28:03.210Z,18.30
2023-06-11T02:30:29.969Z,18.20
2023-06-11T02:32:56.796Z,18.20
2023-06-11T02:35:23.567Z,19.40
2023-06-11T02:37:50.537Z,18.10
2023-06-11T02:40:17.420Z,18.10
2023-06-11T02:42:44.214Z,18.10
2023-06-11T02:45:11.520Z,18.30
2023-06-11T02:47:38.534Z,18.00
2023-06-11T02:50:05.897Z,17.90
2023-06-11T02:52:32.703Z,17.90
2023-06-11T02:54:59.439Z,17.90
2023-06-11T02:57:26.148Z,17.90
2023-06-11T02:59:52.989Z,17.90
2023-06-11T03:02:20.096Z,17.80
2023-06-11T03:04:46.806Z,17.70
2023-06-11T03:09:40.694Z,17.90
2023-06-11T03:12:08.162Z,17.70
2023-06-11T03:17:02.092Z,17.50
2023-06-11T03:19:28.790Z,17.50
2023-06-11T03:21:55.521Z,17.50
2023-06-11T03:24:22.320Z,17.40
2023-06-11T03:26:49.174Z,17.40
2023-06-11T03:29:15.905Z,17.40
2023-06-11T03:31:43.109Z,17.30
2023-06-11T03:34:09.846Z,17.30
2023-06-11T03:36:37.383Z,17.30
2023-06-11T03:39:04.520Z,17.30
2023-06-11T03:41:31.322Z,17.30
2023-06-11T03:43:58.241Z,17.30
2023-06-11T03:46:26.047Z,17.30
2023-06-11T03:48:52.779Z,17.30
2023-06-11T03:51:19.692Z,17.30
2023-06-11T03:53:47.980Z,17.30
2023-06-11T03:56:14.779Z,17.30
2023-06-11T03:58:41.638Z,17.30
2023-06-11T04:01:08.438Z,17.30
2023-06-11T04:03:35.432Z,17.40
2023-06-11T04:06:02.672Z,17.30
2023-06-11T04:08:29.425Z,17.30
2023-06-11T04:10:56.241Z,17.40
2023-06-11T04:13:23.082Z,17.40
2023-06-11T04:15:49.824Z,17.40
2023-06-11T04:18:17.620Z,17.40
2023-06-11T04:20:44.537Z,17.50
2023-06-11T04:23:11.367Z,17.50
2023-06-11T04:25:40.333Z,17.60
2023-06-11T04:28:07.144Z,17.60
2023-06-11T04:30:34.840Z,17.70
2023-06-11T04:33:04.368Z,17.70
2023-06-11T04:35:35.557Z,17.80
2023-06-11T04:38:04.288Z,17.80
2023-06-11T04:40:31.615Z,17.90
2023-06-11T04:42:58.958Z,17.90
2023-06-11T04:45:28.093Z,17.90
2023-06-11T04:47:55.185Z,18.00
2023-06-11T04:50:22.528Z,18.00
2023-06-11T04:52:53.029Z,18.10
2023-06-11T04:55:26.372Z,18.10
2023-06-11T04:57:56.089Z,18.20
2023-06-11T05:00:23.239Z,18.20
2023-06-11T05:02:51.133Z,18.20
2023-06-11T05:05:18.131Z,18.30
2023-06-11T05:07:44.842Z,18.40
2023-06-11T05:10:11.743Z,18.50
2023-06-11T05:12:38.450Z,18.60
2023-06-11T05:15:05.960Z,18.70
2023-06-11T05:17:34.194Z,18.70
2023-06-11T05:20:01.128Z,18.80
2023-06-11T05:22:27.986Z,18.90
2023-06-11T05:24:54.908Z,19.10
2023-06-11T05:27:22.449Z,19.70
2023-06-11T05:29:49.170Z,20.70
2023-06-11T05:32:16.391Z,21.90
2023-06-11T05:34:44.325Z,23.10
2023-06-11T05:37:11.263Z,24.60
2023-06-11T05:39:38.125Z,25.70
2023-06-11T05:42:05.219Z,26.70
2023-06-11T05:44:31.991Z,27.50
2023-06-11T05:46:58.953Z,28.20
2023-06-11T05:49:26.158Z,28.90
2023-06-11T05:51:53.057Z,29.20
2023-06-11T05:54:19.993Z,29.60
2023-06-11T05:56:46.815Z,30.00
2023-06-11T05:59:13.582Z,30.50
2023-06-11T06:01:46.511Z,31.10
2023-06-11T06:04:15.155Z,31.70
2023-06-11T06:06:42.088Z,32.10
2023-06-11T06:09:08.945Z,32.30
2023-06-11T06:11:35.997Z,32.50
2023-06-11T06:14:04.178Z,32.70
2023-06-11T06:16:32.791Z,32.90
2023-06-11T06:18:59.889Z,32.90
2023-06-11T06:21:26.863Z,32.90
2023-06-11T06:23:53.861Z,33.10
2023-06-11T06:26:21.584Z,33.20
2023-06-11T06:28:48.299Z,33.30
2023-06-11T06:31:15.417Z,33.30
2023-06-11T06:33:42.186Z,33.40
2023-06-11T06:36:08.938Z,33.40
2023-06-11T06:38:37.583Z,33.30
2023-06-11T06:41:04.761Z,33.40
2023-06-11T06:43:31.496Z,33.40
2023-06-11T06:45:58.397Z,33.50
2023-06-11T06:48:25.437Z,33.60
2023-06-11T06:50:52.704Z,33.70
2023-06-11T06:53:19.556Z,33.80
2023-06-11T06:55:46.417Z,33.90
2023-06-11T06:58:13.284Z,33.90
2023-06-11T07:00:40.342Z,34.00
2023-06-11T07:03:07.737Z,34.00
2023-06-11T07:05:34.656Z,34.10
2023-06-11T07:08:01.537Z,34.00
2023-06-11T07:10:28.884Z,33.90
2023-06-11T07:12:58.633Z,34.10
2023-06-11T07:15:27.353Z,34.30
2023-06-11T07:17:54.170Z,34.50
2023-06-11T07:20:21.326Z,34.60
2023-06-11T07:22:48.157Z,34.70
2023-06-11T07:25:15.003Z,34.90
2023-06-11T07:27:42.601Z,34.90
2023-06-11T07:30:10.473Z,34.90
2023-06-11T07:32:38.430Z,34.90
2023-06-11T07:35:05.873Z,34.90
2023-06-11T07:37:33.361Z,35.00
2023-06-11T07:40:00.079Z,35.10
2023-06-11T07:42:28.040Z,35.00
2023-06-11T07:44:54.906Z,35.10
2023-06-11T07:47:22.465Z,34.90
2023-06-11T07:49:49.224Z,34.90
2023-06-11T07:52:16.444Z,34.90
2023-06-11T07:54:43.614Z,34.80
2023-06-11T07:57:13.968Z,34.90
2023-06-11T07:59:43.416Z,35.00
2023-06-11T08:02:11.349Z,35.10
2023-06-11T08:04:38.821Z,35.10
2023-06-11T08:07:06.420Z,35.10
2023-06-11T08:09:36.153Z,35.00
2023-06-11T08:12:07.461Z,35.10
2023-06-11T08:14:35.166Z,35.10
2023-06-11T08:17:02.414Z,35.20
2023-06-11T08:19:29.554Z,35.30
2023-06-11T08:21:57.109Z,35.20
2023-06-11T08:24:24.229Z,35.10
2023-06-11T08:26:51.084Z,35.00
2023-06-11T08:29:17.951Z,34.70
2023-06-11T08:31:44.818Z,34.60
2023-06-11T08:34:11.661Z,34.60
2023-06-11T08:36:41.786Z,34.60
2023-06-11T08:39:08.569Z,34.70
2023-06-11T08:41:37.202Z,34.70
2023-06-11T08:44:04.136Z,34.70
2023-06-11T08:46:36.708Z,34.60
2023-06-11T08:49:08.753Z,34.40
2023-06-11T08:51:38.304Z,34.40
2023-06-11T08:54:10.244Z,34.30
2023-06-11T08:56:37.233Z,34.20
2023-06-11T08:59:04.287Z,34.00
2023-06-11T09:01:32.762Z,33.90
2023-06-11T09:04:00.657Z,33.90
2023-06-11T09:06:29.198Z,34.00
2023-06-11T09:09:02.179Z,34.00
2023-06-11T09:11:39.229Z,34.00
2023-06-11T09:14:07.772Z,34.00
2023-06-11T09:16:48.975Z,33.90
2023-06-11T09:19:21.167Z,34.10
2023-06-11T09:21:51.267Z,34.20
2023-06-11T09:24:22.769Z,34.20
2023-06-11T09:26:59.638Z,34.30
2023-06-11T09:29:28.582Z,34.20
2023-06-11T09:32:16.285Z,34.20
2023-06-11T09:34:56.155Z,34.30
2023-06-11T09:37:22.899Z,34.10
2023-06-11T09:39:49.831Z,33.90
2023-06-11T09:42:27.764Z,33.80
2023-06-11T09:45:00.177Z,33.80
2023-06-11T09:47:29.584Z,33.80
2023-06-11T09:50:02.599Z,33.80
2023-06-11T09:52:29.943Z,33.80
2023-06-11T09:54:57.702Z,33.80
2023-06-11T09:57:25.643Z,33.80
2023-06-11T09:59:52.749Z,33.80
2023-06-11T10:02:19.671Z,33.90
2023-06-11T10:04:47.112Z,33.80
2023-06-11T10:07:15.691Z,33.80
2023-06-11T10:09:44.212Z,33.70
2023-06-11T10:12:12.805Z,33.50
2023-06-11T10:14:41.035Z,33.50
2023-06-11T10:17:11.720Z,33.40
2023-06-11T10:19:38.543Z,33.40
2023-06-11T10:22:05.593Z,33.30
2023-06-11T10:24:32.659Z,33.10
2023-06-11T10:27:11.958Z,33.00
2023-06-11T10:29:49.609Z,33.00
2023-06-11T10:32:22.367Z,33.10
2023-06-11T10:34:56.305Z,33.20
2023-06-11T10:37:38.647Z,33.20
2023-06-11T10:40:09.672Z,33.20
2023-06-11T10:42:41.582Z,33.20
2023-06-11T10:45:13.405Z,33.20
2023-06-11T10:47:45.140Z,33.20
2023-06-11T10:50:15.352Z,33.20
2023-06-11T10:52:59.217Z,33.20
2023-06-11T10:55:30.447Z,33.10
2023-06-11T10:58:01.395Z,33.00
2023-06-11T11:00:33.232Z,32.90
2023-06-11T11:03:02.742Z,32.80
2023-06-11T11:05:29.653Z,32.70
2023-06-11T11:07:56.637Z,32.80
2023-06-11T11:10:27.817Z,32.90
2023-06-11T11:12:55.554Z,32.80
2023-06-11T11:15:22.636Z,32.80
2023-06-11T11:17:51.513Z,32.80
2023-06-11T11:20:20.898Z,32.70
2023-06-11T11:22:58.606Z,32.70
2023-06-11T11:25:31.450Z,32.70
2023-06-11T11:27:58.415Z,32.70
2023-06-11T11:30:29.687Z,32.70
2023-06-11T11:32:58.012Z,32.70
2023-06-11T11:35:26.511Z,32.70
2023-06-11T11:37:55.693Z,32.80
2023-06-11T11:40:23.314Z,32.90
2023-06-11T11:42:50.638Z,32.90
2023-06-11T11:45:18.923Z,32.90
2023-06-11T11:47:53.142Z,33.00
2023-06-11T11:50:28.627Z,33.00
2023-06-11T11:53:07.021Z,33.10
2023-06-11T11:55:47.926Z,33.20
2023-06-11T11:58:23.841Z,33.30
2023-06-11T12:01:00.163Z,33.30
2023-06-11T12:03:28.313Z,33.30
2023-06-11T12:05:59.422Z,33.20
2023-06-11T12:08:30.208Z,33.30
2023-06-11T12:11:00.850Z,33.40
2023-06-11T12:13:28.342Z,33.40
2023-06-11T12:15:55.251Z,33.40
2023-06-11T12:18:22.279Z,33.60
2023-06-11T12:20:49.188Z,33.70
2023-06-11T12:23:16.203Z,33.70
2023-06-11T12:25:46.658Z,33.70
2023-06-11T12:28:13.351Z,33.50
2023-06-11T12:30:42.841Z,33.40
2023-06-11T12:33:09.830Z,33.30
2023-06-11T12:35:37.425Z,33.30
2023-06-11T12:38:04.324Z,33.40
2023-06-11T12:40:32.581Z,33.40
2023-06-11T12:43:00.540Z,33.40
2023-06-11T12:45:31.494Z,33.40
2023-06-11T12:47:58.819Z,33.50
2023-06-11T12:50:27.268Z,33.50
2023-06-11T12:52:54.740Z,33.50
2023-06-11T12:55:21.813Z,33.40
2023-06-11T12:57:50.456Z,33.30
2023-06-11T13:00:18.014Z,33.20
2023-06-11T13:02:45.840Z,33.20
2023-06-11T13:05:12.759Z,33.10
2023-06-11T13:07:42.982Z,33.20
2023-06-11T13:10:10.449Z,33.30
2023-06-11T13:12:37.493Z,33.20
2023-06-11T13:15:04.732Z,33.10
2023-06-11T13:17:31.563Z,33.00
2023-06-11T13:19:58.539Z,33.00
2023-06-11T13:22:25.476Z,32.90
2023-06-11T13:24:52.813Z,33.00
2023-06-11T13:27:19.584Z,33.00
2023-06-11T13:29:46.646Z,33.10
2023-06-11T13:32:13.711Z,33.30
2023-06-11T13:34:40.533Z,33.30
2023-06-11T13:37:07.538Z,33.30
2023-06-11T13:39:34.597Z,33.20
2023-06-11T13:42:01.733Z,33.30
2023-06-11T13:44:28.602Z,33.50
2023-06-11T13:46:55.675Z,33.60
2023-06-11T13:49:23.380Z,33.60
2023-06-11T13:51:51.884Z,33.50
2023-06-11T13:54:18.804Z,33.60
2023-06-11T13:56:46.871Z,33.70
2023-06-11T13:59:13.604Z,33.90
2023-06-11T14:01:40.502Z,34.00
2023-06-11T14:04:08.889Z,34.00
2023-06-11T14:06:37.672Z,34.00
2023-06-11T14:09:04.684Z,33.90
2023-06-11T14:11:31.530Z,34.00
2023-06-11T14:13:59.318Z,33.90
2023-06-11T14:16:26.379Z,33.80
2023-06-11T14:18:53.167Z,33.80
2023-06-11T14:21:19.979Z,33.90
2023-06-11T14:23:47.854Z,34.00
2023-06-11T14:26:15.144Z,34.00
2023-06-11T14:28:41.948Z,34.00
2023-06-11T14:31:08.694Z,34.00
2023-06-11T14:33:35.453Z,34.00
2023-06-11T14:36:07.042Z,34.00
2023-06-11T14:38:35.442Z,34.10
2023-06-11T14:41:02.293Z,34.10
2023-06-11T14:43:29.403Z,34.10
2023-06-11T14:45:56.188Z,34.00
2023-06-11T14:48:22.957Z,33.90
2023-06-11T14:50:49.761Z,33.70
2023-06-11T14:53:16.888Z,33.50
2023-06-11T14:55:44.450Z,33.10
2023-06-11T14:58:11.375Z,32.80
2023-06-11T15:00:38.177Z,32.90
2023-06-11T15:03:05.074Z,32.90
2023-06-11T15:05:31.984Z,32.80
2023-06-11T15:07:58.692Z,32.70
2023-06-11T15:10:25.566Z,32.80
2023-06-11T15:12:53.456Z,32.90
2023-06-11T15:15:20.301Z,33.00
2023-06-11T15:17:47.876Z,33.20
2023-06-11T15:20:15.212Z,33.30
2023-06-11T15:22:43.199Z,33.40
2023-06-11T15:25:12.732Z,33.40
2023-06-11T15:27:40.895Z,33.40
2023-06-11T15:30:08.175Z,33.40
2023-06-11T15:32:35.262Z,33.30
2023-06-11T15:35:02.639Z,33.30
2023-06-11T15:37:29.389Z,33.20
2023-06-11T15:39:56.126Z,33.20
2023-06-11T15:42:22.984Z,33.20
2023-06-11T15:44:49.997Z,33.20
2023-06-11T15:47:17.720Z,33.20
2023-06-11T15:49:44.700Z,33.10
2023-06-11T15:52:11.465Z,33.10
2023-06-11T15:54:38.628Z,33.20
2023-06-11T15:57:07.257Z,33.10
2023-06-11T15:59:35.525Z,33.00
2023-06-11T16:02:02.522Z,32.90
2023-06-11T16:04:32.805Z,32.70
2023-06-11T16:07:03.478Z,32.70
2023-06-11T16:09:30.240Z,32.60
2023-06-11T16:11:59.082Z,32.60
2023-06-11T16:14:25.820Z,32.70
2023-06-11T16:16:52.589Z,32.60
2023-06-11T16:19:19.617Z,32.60
2023-06-11T16:21:46.404Z,32.60
2023-06-11T16:24:13.143Z,32.50
2023-06-11T16:26:40.104Z,32.30
2023-06-11T16:29:06.788Z,32.30
2023-06-11T16:31:33.659Z,32.40
2023-06-11T16:34:01.936Z,32.40
2023-06-11T16:36:31.042Z,32.40
2023-06-11T16:39:12.834Z,32.40
2023-06-11T16:41:47.149Z,32.50
2023-06-11T16:44:14.115Z,32.50
2023-06-11T16:46:40.979Z,32.50
2023-06-11T16:49:08.804Z,32.40
2023-06-11T16:51:35.544Z,32.30
2023-06-11T16:54:02.402Z,32.30
2023-06-11T16:56:30.643Z,32.20
2023-06-11T16:58:57.495Z,32.30
2023-06-11T17:01:27.393Z,32.20
2023-06-11T17:03:55.351Z,32.10
2023-06-11T17:06:24.893Z,32.10
2023-06-11T17:08:51.631Z,32.00
2023-06-11T17:11:18.516Z,32.00
2023-06-11T17:13:45.418Z,32.00
2023-06-11T17:16:13.257Z,31.90
2023-06-11T17:18:40.326Z,31.90
2023-06-11T17:21:07.136Z,31.90
2023-06-11T17:23:34.082Z,31.90
2023-06-11T17:26:01.065Z,31.80
2023-06-11T17:28:27.898Z,31.70
2023-06-11T17:30:54.823Z,31.70
2023-06-11T17:33:21.872Z,31.60
2023-06-11T17:35:50.846Z,31.60
2023-06-11T17:38:17.618Z,31.60
2023-06-11T17:40:44.488Z,31.60
2023-06-11T17:43:11.432Z,31.60
2023-06-11T17:45:38.305Z,31.60
2023-06-11T17:48:06.863Z,31.50
2023-06-11T17:50:33.651Z,31.40
2023-06-11T17:53:00.371Z,31.40
2023-06-11T17:55:27.737Z,31.30
2023-06-11T17:57:55.522Z,31.30
2023-06-11T18:00:22.298Z,31.30
2023-06-11T18:02:49.148Z,31.20
2023-06-11T18:05:16.005Z,31.20
2023-06-11T18:07:46.737Z,31.20
2023-06-11T18:10:17.291Z,31.10
2023-06-11T18:12:45.504Z,31.00
2023-06-11T18:15:30.642Z,30.90
2023-06-11T18:17:59.787Z,30.80
2023-06-11T18:20:28.486Z,30.80
2023-06-11T18:22:55.467Z,30.70
2023-06-11T18:25:22.612Z,30.60
2023-06-11T18:27:49.515Z,30.50
2023-06-11T18:30:16.366Z,30.40
2023-06-11T18:32:43.273Z,30.40
2023-06-11T18:35:11.278Z,30.30
2023-06-11T18:37:38.037Z,30.10
2023-06-11T18:40:06.158Z,30.10
2023-06-11T18:42:33.117Z,30.10
2023-06-11T18:44:59.900Z,30.00
2023-06-11T18:47:26.882Z,29.90
2023-06-11T18:49:54.077Z,29.90
2023-06-11T18:52:20.777Z,29.80
2023-06-11T18:54:51.184Z,29.80
2023-06-11T18:57:20.695Z,29.70
2023-06-11T18:59:47.546Z,29.60
2023-06-11T19:02:14.337Z,29.50
2023-06-11T19:04:42.485Z,29.50
2023-06-11T19:07:09.481Z,29.30
2023-06-11T19:09:36.600Z,29.30
2023-06-11T19:12:03.722Z,29.20
2023-06-11T19:14:30.536Z,29.10
2023-06-11T19:16:57.356Z,29.00
2023-06-11T19:19:24.191Z,28.90
2023-06-11T19:21:51.063Z,28.90
2023-06-11T19:24:17.995Z,28.80
2023-06-11T19:26:44.904Z,28.70
2023-06-11T19:29:12.188Z,28.60
2023-06-11T19:31:39.565Z,28.60
2023-06-11T19:34:06.496Z,28.50
2023-06-11T19:36:33.299Z,28.40
2023-06-11T19:39:00.198Z,28.30
2023-06-11T19:41:29.756Z,28.20
2023-06-11T19:43:57.370Z,28.10
2023-06-11T19:46:27.931Z,28.00
2023-06-11T19:48:56.210Z,27.90
2023-06-11T19:51:23.015Z,27.80
2023-06-11T19:53:52.981Z,27.70
2023-06-11T19:56:21.022Z,27.60
2023-06-11T19:58:48.425Z,27.40
2023-06-11T20:01:17.198Z,27.30
2023-06-11T20:03:45.367Z,27.20
2023-06-11T20:06:12.745Z,27.10
2023-06-11T20:08:39.972Z,27.00
2023-06-11T20:11:11.538Z,26.90
2023-06-11T20:13:43.333Z,26.80
2023-06-11T20:16:11.521Z,26.70
2023-06-11T20:18:41.407Z,26.60
2023-06-11T20:21:08.383Z,26.50
2023-06-11T20:23:35.950Z,26.30
2023-06-11T20:26:02.831Z,26.30
2023-06-11T20:28:30.336Z,26.20
2023-06-11T20:30:57.188Z,26.10
2023-06-11T20:33:24.164Z,26.00
2023-06-11T20:35:51.529Z,26.00
2023-06-11T20:38:18.699Z,25.90
2023-06-11T20:40:46.558Z,25.90
2023-06-11T20:43:13.853Z,25.80
2023-06-11T20:45:51.191Z,25.80
2023-06-11T20:48:24.388Z,25.80
2023-06-11T20:50:51.472Z,25.70
2023-06-11T20:53:32.492Z,25.60
2023-06-11T20:56:01.341Z,25.60
2023-06-11T20:58:28.372Z,25.60
2023-06-11T21:00:55.248Z,25.50
2023-06-11T21:03:23.664Z,25.50
2023-06-11T21:05:51.682Z,25.40
2023-06-11T21:08:19.159Z,25.60
2023-06-11T21:10:49.022Z,25.40
2023-06-11T21:13:16.332Z,25.30
2023-06-11T21:15:43.700Z,25.20
2023-06-11T21:18:10.987Z,25.30
2023-06-11T21:20:39.414Z,25.10
2023-06-11T21:23:06.730Z,25.00
2023-06-11T21:25:33.658Z,24.90
2023-06-11T21:28:00.418Z,24.90
2023-06-11T21:30:29.281Z,24.80
2023-06-11T21:32:56.388Z,24.70
2023-06-11T21:35:23.179Z,24.60
2023-06-11T21:37:50.102Z,24.60
2023-06-11T21:40:17.150Z,24.50
2023-06-11T21:42:43.957Z,24.40
2023-06-11T21:45:11.219Z,24.40
2023-06-11T21:47:38.101Z,24.30
2023-06-11T21:50:06.820Z,24.30
2023-06-11T21:55:07.881Z,24.10
2023-06-11T21:57:35.217Z,24.10
2023-06-11T22:00:11.945Z,24.00
2023-06-11T22:02:40.892Z,24.00
2023-06-11T22:05:08.634Z,24.00
2023-06-11T22:07:36.776Z,24.00
2023-06-11T22:10:05.257Z,23.90
2023-06-11T22:12:42.837Z,23.90
2023-06-11T22:15:14.112Z,23.80
2023-06-11T22:17:42.141Z,23.70
2023-06-11T22:20:10.760Z,23.70
2023-06-11T22:22:39.908Z,23.60
2023-06-11T22:25:10.701Z,23.60
2023-06-11T22:27:40.809Z,23.50
2023-06-11T22:30:09.229Z,23.40
2023-06-11T22:32:36.310Z,23.40
2023-06-11T22:35:03.270Z,23.30
2023-06-11T22:37:30.035Z,23.20
2023-06-11T22:39:56.846Z,23.20
2023-06-11T22:42:23.959Z,23.10
2023-06-11T22:44:50.748Z,23.10
2023-06-11T22:47:18.632Z,23.00
2023-06-11T22:49:45.937Z,22.90
2023-06-11T22:52:12.748Z,22.90
2023-06-11T22:54:40.141Z,22.80
2023-06-11T22:57:09.622Z,22.80
2023-06-11T22:59:36.655Z,22.80
2023-06-11T23:02:03.711Z,22.70
2023-06-11T23:04:34.374Z,22.70
2023-06-11T23:07:03.480Z,22.80
2023-06-11T23:09:30.894Z,22.70
2023-06-11T23:11:57.640Z,22.50
2023-06-11T23:14:24.525Z,22.50
2023-06-11T23:16:51.401Z,22.50
2023-06-11T23:19:23.731Z,22.40
2023-06-11T23:21:51.820Z,22.40
2023-06-11T23:24:19.026Z,22.40
2023-06-11T23:26:46.796Z,22.30
2023-06-11T23:29:13.602Z,22.30
2023-06-11T23:31:40.697Z,22.20
2023-06-11T23:34:10.043Z,22.20
2023-06-11T23:36:40.940Z,22.10
2023-06-11T23:39:09.698Z,22.00
2023-06-11T23:41:37.286Z,22.00
2023-06-11T23:44:04.696Z,21.90
2023-06-11T23:46:32.222Z,21.80
2023-06-11T23:51:27.025Z,21.70
2023-06-11T23:53:53.927Z,21.60
2023-06-11T23:56:21.883Z,21.60
2023-06-11T23:58:48.634Z,21.60
